Time;durP1;ratioP1;P1;durP2;ratioP2;P2;SDS_P1;SDS_P2;PMS_P1;PMS_P2;Temp;Humidity;BMP_temperature;BMP_pressure;BME280_temperature;BME280_humidity;BME280_pressure;Samples;Min_cycle;Max_cycle;Signal;HPM_P1;HPM_P2
2024/01/28 00:00:15;;;;;;;27.00;15.93;;;;;;;;;;5058027;28;20437;-83
2024/01/28 00:02:42;;;;;;;30.07;17.40;;;;;;;;;;5058464;28;20448;-75
2024/01/28 00:05:09;;;;;;;35.17;18.60;;;;;;;;;;5061066;28;21046;-75
2024/01/28 00:07:37;;;;;;;28.07;18.00;;;;;;;;;;5062354;28;20448;-75
2024/01/28 00:10:03;;;;;;;23.93;17.33;;;;;;;;;;5060908;28;20484;-75
2024/01/28 00:12:30;;;;;;;42.03;18.10;;;;;;;;;;5060130;28;20481;-74
2024/01/28 00:14:56;;;;;;;29.77;17.67;;;;;;;;;;5054341;28;20464;-82
2024/01/28 00:17:23;;;;;;;27.57;15.60;;;;;;;;;;5052754;28;20446;-84
2024/01/28 00:19:49;;;;;;;33.43;16.50;;;;;;;;;;5056527;28;20445;-84
2024/01/28 00:22:16;;;;;;;30.43;16.97;;;;;;;;;;5055337;28;20449;-85
2024/01/28 00:24:43;;;;;;;28.30;16.10;;;;;;;;;;5059881;28;20508;-83
2024/01/28 00:27:10;;;;;;;29.57;18.40;;;;;;;;;;5057693;28;20453;-84
2024/01/28 00:29:36;;;;;;;29.90;16.67;;;;;;;;;;5058519;28;20473;-85
2024/01/28 00:32:03;;;;;;;24.40;16.20;;;;;;;;;;5055065;28;20556;-85
2024/01/28 00:34:29;;;;;;;35.47;17.47;;;;;;;;;;5060898;28;20569;-83
2024/01/28 00:36:56;;;;;;;27.90;17.90;;;;;;;;;;5058945;28;20488;-85
2024/01/28 00:39:23;;;;;;;24.17;16.83;;;;;;;;;;5071849;28;20500;-83
2024/01/28 00:41:51;;;;;;;26.17;16.87;;;;;;;;;;5061509;28;20515;-86
2024/01/28 00:44:19;;;;;;;30.73;17.20;;;;;;;;;;5054341;28;20483;-86
2024/01/28 00:46:45;;;;;;;26.10;16.77;;;;;;;;;;5054271;28;20479;-84
2024/01/28 00:49:11;;;;;;;26.63;16.70;;;;;;;;;;5050224;28;20543;-78
2024/01/28 00:51:38;;;;;;;29.57;14.70;;;;;;;;;;5058282;28;20524;-78
2024/01/28 00:54:04;;;;;;;30.17;16.70;;;;;;;;;;5062156;28;20449;-78
2024/01/28 00:56:31;;;;;;;25.30;15.23;;;;;;;;;;5060901;28;20500;-83
2024/01/28 00:58:58;;;;;;;34.07;14.70;;;;;;;;;;5060029;28;20485;-83
2024/01/28 01:01:25;;;;;;;20.07;14.63;;;;;;;;;;5054655;28;20506;-82
2024/01/28 01:03:51;;;;;;;26.63;14.70;;;;;;;;;;5063883;28;20448;-78
2024/01/28 01:06:18;;;;;;;29.03;14.90;;;;;;;;;;5057586;28;21160;-79
2024/01/28 01:08:44;;;;;;;20.27;12.70;;;;;;;;;;5060238;28;20445;-78
2024/01/28 01:11:11;;;;;;;25.83;15.30;;;;;;;;;;5061662;28;20534;-84
2024/01/28 01:13:37;;;;;;;25.63;15.07;;;;;;;;;;5053331;28;20484;-84
2024/01/28 01:16:06;;;;;;;27.50;13.47;;;;;;;;;;5056917;28;20517;-84
2024/01/28 01:18:32;;;;;;;26.00;14.17;;;;;;;;;;5061808;28;20566;-84
2024/01/28 01:20:58;;;;;;;19.50;13.73;;;;;;;;;;5060500;28;20507;-84
2024/01/28 01:23:25;;;;;;;21.53;12.40;;;;;;;;;;5058165;28;20573;-83
2024/01/28 01:25:51;;;;;;;23.00;14.73;;;;;;;;;;5059467;28;20487;-84
2024/01/28 01:28:18;;;;;;;22.47;13.53;;;;;;;;;;5056622;28;20845;-82
2024/01/28 01:30:44;;;;;;;24.30;13.97;;;;;;;;;;5059862;28;20524;-83
2024/01/28 01:33:12;;;;;;;34.23;15.80;;;;;;;;;;5057891;28;20477;-78
2024/01/28 01:35:38;;;;;;;17.87;13.10;;;;;;;;;;5055284;28;20517;-81
2024/01/28 01:38:05;;;;;;;23.73;13.77;;;;;;;;;;5060170;28;20539;-78
2024/01/28 01:40:31;;;;;;;25.40;14.40;;;;;;;;;;5056495;28;20475;-78
2024/01/28 01:42:58;;;;;;;27.57;14.87;;;;;;;;;;5056223;28;20521;-78
2024/01/28 01:45:24;;;;;;;24.60;13.70;;;;;;;;;;5052154;28;20456;-83
2024/01/28 01:47:50;;;;;;;20.80;14.20;;;;;;;;;;5059224;28;20492;-83
2024/01/28 01:50:18;;;;;;;33.47;14.33;;;;;;;;;;5065438;28;20505;-83
2024/01/28 01:52:45;;;;;;;24.13;13.33;;;;;;;;;;5054320;28;20453;-78
2024/01/28 01:55:12;;;;;;;37.37;14.27;;;;;;;;;;5059197;28;20492;-77
2024/01/28 01:57:41;;;;;;;36.07;15.63;;;;;;;;;;5056641;28;20453;-83
2024/01/28 02:00:09;;;;;;;23.90;13.87;;;;;;;;;;5064346;28;20460;-83
2024/01/28 02:02:37;;;;;;;33.27;14.20;;;;;;;;;;5060915;28;20932;-78
2024/01/28 02:05:04;;;;;;;25.30;16.30;;;;;;;;;;5060572;28;20445;-78
2024/01/28 02:07:32;;;;;;;27.73;12.20;;;;;;;;;;5056481;28;20487;-78
2024/01/28 02:09:58;;;;;;;23.90;13.53;;;;;;;;;;5064995;28;20486;-78
2024/01/28 02:12:25;;;;;;;20.60;13.80;;;;;;;;;;5066249;28;20811;-78
2024/01/28 02:14:51;;;;;;;24.37;13.40;;;;;;;;;;5061438;28;20484;-78
2024/01/28 02:17:18;;;;;;;21.10;13.60;;;;;;;;;;5056458;28;20452;-78
2024/01/28 02:19:44;;;;;;;24.20;13.53;;;;;;;;;;5068695;28;20488;-78
2024/01/28 02:22:13;;;;;;;21.20;13.20;;;;;;;;;;5060194;28;20452;-78
2024/01/28 02:24:41;;;;;;;22.80;13.60;;;;;;;;;;5060083;28;20470;-78
2024/01/28 02:27:07;;;;;;;19.07;12.93;;;;;;;;;;5060295;28;20925;-79
2024/01/28 02:29:34;;;;;;;26.40;12.83;;;;;;;;;;5056492;28;20490;-78
2024/01/28 02:32:00;;;;;;;25.43;13.13;;;;;;;;;;5059421;28;20552;-78
2024/01/28 02:34:26;;;;;;;16.80;11.83;;;;;;;;;;5054442;28;20529;-78
2024/01/28 02:36:53;;;;;;;24.33;12.67;;;;;;;;;;5053479;28;20485;-78
2024/01/28 02:39:19;;;;;;;21.90;13.77;;;;;;;;;;5058811;28;20505;-78
2024/01/28 02:41:47;;;;;;;21.33;13.00;;;;;;;;;;5054759;28;20529;-78
2024/01/28 02:44:14;;;;;;;24.87;14.27;;;;;;;;;;5060145;28;20518;-78
2024/01/28 02:46:40;;;;;;;24.37;13.33;;;;;;;;;;5063055;28;20461;-78
2024/01/28 02:49:06;;;;;;;21.23;13.40;;;;;;;;;;5052460;28;20456;-78
2024/01/28 02:51:33;;;;;;;27.40;12.37;;;;;;;;;;5063655;28;20556;-85
2024/01/28 02:53:59;;;;;;;22.43;12.50;;;;;;;;;;5057022;28;20487;-82
2024/01/28 02:56:26;;;;;;;20.87;12.77;;;;;;;;;;5062495;28;20470;-83
2024/01/28 02:58:54;;;;;;;18.10;12.90;;;;;;;;;;5062393;28;20454;-84
2024/01/28 03:01:20;;;;;;;20.60;12.03;;;;;;;;;;5059691;28;20461;-83
2024/01/28 03:03:46;;;;;;;22.07;12.77;;;;;;;;;;5075867;28;20526;-83
2024/01/28 03:06:13;;;;;;;18.40;13.07;;;;;;;;;;5061900;28;20488;-84
2024/01/28 03:08:40;;;;;;;16.73;12.97;;;;;;;;;;5065632;28;20963;-84
2024/01/28 03:11:06;;;;;;;24.87;12.30;;;;;;;;;;5058853;28;20575;-84
2024/01/28 03:13:33;;;;;;;18.43;12.23;;;;;;;;;;5061640;28;20484;-83
2024/01/28 03:16:00;;;;;;;17.70;12.87;;;;;;;;;;5059919;28;20488;-83
2024/01/28 03:18:27;;;;;;;18.37;11.60;;;;;;;;;;5066179;28;20444;-85
2024/01/28 03:20:53;;;;;;;21.10;12.50;;;;;;;;;;5058160;28;20472;-83
2024/01/28 03:23:20;;;;;;;19.00;12.23;;;;;;;;;;5060862;28;20536;-85
2024/01/28 03:25:47;;;;;;;19.07;12.00;;;;;;;;;;5053315;28;20454;-84
2024/01/28 03:28:14;;;;;;;26.57;12.20;;;;;;;;;;5068084;28;20462;-83
2024/01/28 03:30:40;;;;;;;23.37;12.93;;;;;;;;;;5065751;28;21142;-84
2024/01/28 03:33:08;;;;;;;22.60;12.93;;;;;;;;;;5068590;28;20488;-85
2024/01/28 03:35:34;;;;;;;22.57;13.03;;;;;;;;;;5064244;28;20460;-84
2024/01/28 03:38:01;;;;;;;18.43;12.93;;;;;;;;;;5062905;28;20520;-83
2024/01/28 03:40:27;;;;;;;20.50;12.33;;;;;;;;;;5054208;28;20452;-85
2024/01/28 03:42:54;;;;;;;22.70;14.07;;;;;;;;;;5055430;28;20508;-84
2024/01/28 03:45:20;;;;;;;20.30;13.90;;;;;;;;;;5062058;28;20488;-84
2024/01/28 03:47:48;;;;;;;26.10;14.00;;;;;;;;;;5063385;28;20453;-84
2024/01/28 03:50:19;;;;;;;20.07;12.23;;;;;;;;;;5062250;28;20498;-78
2024/01/28 03:52:46;;;;;;;19.67;13.43;;;;;;;;;;5058551;28;20484;-78
2024/01/28 03:55:12;;;;;;;34.27;13.97;;;;;;;;;;5059128;28;20455;-78
2024/01/28 03:57:40;;;;;;;25.40;14.03;;;;;;;;;;5058390;28;20464;-84
2024/01/28 04:00:07;;;;;;;21.50;13.57;;;;;;;;;;5060047;28;20977;-84
2024/01/28 04:02:33;;;;;;;24.30;14.33;;;;;;;;;;5057521;28;20452;-84
2024/01/28 04:05:00;;;;;;;27.10;13.43;;;;;;;;;;5052170;28;20485;-84
2024/01/28 04:07:28;;;;;;;25.47;13.90;;;;;;;;;;5061006;28;20520;-84
2024/01/28 04:09:54;;;;;;;27.53;14.97;;;;;;;;;;5057804;28;20481;-84
2024/01/28 04:12:20;;;;;;;23.53;12.77;;;;;;;;;;5057642;28;20481;-84
2024/01/28 04:14:47;;;;;;;19.63;13.00;;;;;;;;;;5057740;28;20445;-83
2024/01/28 04:17:13;;;;;;;24.83;13.60;;;;;;;;;;5056824;28;20513;-78
2024/01/28 04:19:40;;;;;;;23.13;13.40;;;;;;;;;;5058925;28;20491;-84
2024/01/28 04:22:08;;;;;;;17.60;12.90;;;;;;;;;;5055965;28;20512;-85
2024/01/28 04:24:35;;;;;;;31.83;15.00;;;;;;;;;;5062520;28;20480;-84
2024/01/28 04:27:02;;;;;;;17.73;12.30;;;;;;;;;;5067044;28;20448;-85
2024/01/28 04:29:28;;;;;;;23.07;13.37;;;;;;;;;;5059469;28;20460;-84
2024/01/28 04:31:55;;;;;;;17.90;12.77;;;;;;;;;;5059082;28;20552;-83
2024/01/28 04:34:22;;;;;;;17.13;12.47;;;;;;;;;;5063969;28;20458;-84
2024/01/28 04:36:48;;;;;;;21.73;13.97;;;;;;;;;;5059534;28;20487;-84
2024/01/28 04:39:15;;;;;;;17.57;12.70;;;;;;;;;;5068718;28;20532;-84
2024/01/28 04:41:43;;;;;;;26.70;13.93;;;;;;;;;;5065132;28;20583;-78
2024/01/28 04:44:09;;;;;;;21.83;12.90;;;;;;;;;;5059184;28;20447;-78
2024/01/28 04:46:36;;;;;;;23.03;11.97;;;;;;;;;;5056112;28;20555;-78
2024/01/28 04:49:03;;;;;;;16.60;12.10;;;;;;;;;;5058062;28;20477;-78
2024/01/28 04:51:30;;;;;;;21.13;11.63;;;;;;;;;;5061539;28;20516;-78
2024/01/28 04:53:57;;;;;;;21.93;12.97;;;;;;;;;;5066797;28;21072;-78
2024/01/28 04:56:23;;;;;;;23.00;12.20;;;;;;;;;;5062111;28;20481;-78
2024/01/28 04:58:51;;;;;;;19.40;12.90;;;;;;;;;;5053582;28;20509;-78
2024/01/28 05:01:17;;;;;;;21.30;12.90;;;;;;;;;;5058504;28;21031;-83
2024/01/28 05:03:44;;;;;;;25.60;12.33;;;;;;;;;;5057429;28;20912;-78
2024/01/28 05:06:10;;;;;;;26.67;12.53;;;;;;;;;;5060500;28;20487;-78
2024/01/28 05:08:36;;;;;;;24.80;12.27;;;;;;;;;;5063120;28;20500;-78
2024/01/28 05:11:03;;;;;;;29.03;11.57;;;;;;;;;;5061128;28;20511;-78
2024/01/28 05:13:29;;;;;;;21.20;12.20;;;;;;;;;;5060567;28;20492;-78
2024/01/28 05:15:57;;;;;;;31.07;12.23;;;;;;;;;;5064421;28;20461;-78
2024/01/28 05:18:23;;;;;;;17.30;12.13;;;;;;;;;;5054712;28;20444;-78
2024/01/28 05:20:50;;;;;;;15.87;11.83;;;;;;;;;;5059319;28;20483;-78
2024/01/28 05:23:16;;;;;;;16.30;11.80;;;;;;;;;;5059904;28;20960;-78
2024/01/28 05:25:43;;;;;;;20.33;11.20;;;;;;;;;;5061096;28;20481;-77
2024/01/28 05:28:09;;;;;;;15.60;11.57;;;;;;;;;;5057980;28;20495;-78
2024/01/28 05:30:36;;;;;;;17.30;10.60;;;;;;;;;;5058251;28;21068;-84
2024/01/28 05:33:04;;;;;;;15.33;10.80;;;;;;;;;;5056355;28;20560;-85
2024/01/28 05:35:32;;;;;;;23.67;11.90;;;;;;;;;;5053713;28;20814;-84
2024/01/28 05:37:58;;;;;;;30.03;13.83;;;;;;;;;;5060577;28;20449;-85
2024/01/28 05:40:25;;;;;;;16.37;10.63;;;;;;;;;;5071322;28;20448;-86
2024/01/28 05:42:51;;;;;;;18.63;11.50;;;;;;;;;;5060176;28;20504;-78
2024/01/28 05:45:17;;;;;;;22.03;11.50;;;;;;;;;;5054184;28;20484;-78
2024/01/28 05:47:44;;;;;;;17.47;11.87;;;;;;;;;;5059503;28;20492;-78
2024/01/28 05:50:12;;;;;;;24.10;13.20;;;;;;;;;;5072318;28;20458;-77
2024/01/28 05:52:39;;;;;;;19.80;11.90;;;;;;;;;;5062263;28;20575;-78
2024/01/28 05:55:05;;;;;;;20.60;12.67;;;;;;;;;;5060206;28;20556;-84
2024/01/28 05:57:32;;;;;;;22.37;11.40;;;;;;;;;;5064205;28;20539;-83
2024/01/28 05:59:58;;;;;;;23.25;12.30;;;;;;;;;;5056680;28;20900;-82
2024/01/28 06:02:25;;;;;;;18.10;11.60;;;;;;;;;;5063802;28;20241;-78
2024/01/28 06:04:51;;;;;;;24.20;11.60;;;;;;;;;;5062840;28;20277;-78
2024/01/28 06:07:19;;;;;;;23.57;11.60;;;;;;;;;;5057213;28;20548;-77
2024/01/28 06:09:45;;;;;;;22.90;11.30;;;;;;;;;;5058645;28;20484;-78
2024/01/28 06:12:12;;;;;;;15.88;10.27;;;;;;;;;;5060782;28;20509;-78
2024/01/28 06:14:38;;;;;;;19.00;11.23;;;;;;;;;;5051412;28;20297;-78
2024/01/28 06:17:04;;;;;;;14.93;10.67;;;;;;;;;;5058533;28;20485;-78
2024/01/28 06:19:30;;;;;;;16.97;11.50;;;;;;;;;;5063905;28;20460;-78
2024/01/28 06:22:00;;;;;;;25.53;12.50;;;;;;;;;;5055987;28;20298;-78
2024/01/28 06:24:28;;;;;;;22.50;10.30;;;;;;;;;;5060861;28;20452;-78
2024/01/28 06:26:54;;;;;;;19.33;10.00;;;;;;;;;;5056623;28;20214;-78
2024/01/28 06:29:21;;;;;;;15.77;11.20;;;;;;;;;;5061609;28;20544;-78
2024/01/28 06:31:47;;;;;;;15.80;9.93;;;;;;;;;;5048532;28;20473;-78
2024/01/28 06:34:13;;;;;;;13.60;10.17;;;;;;;;;;5064515;28;20455;-77
2024/01/28 06:36:40;;;;;;;22.37;10.50;;;;;;;;;;5061664;28;20489;-78
2024/01/28 06:39:06;;;;;;;17.03;10.40;;;;;;;;;;5058532;28;20487;-78
2024/01/28 06:41:34;;;;;;;18.40;10.43;;;;;;;;;;5061745;28;20491;-78
2024/01/28 06:44:02;;;;;;;19.93;10.10;;;;;;;;;;5056679;28;21039;-78
2024/01/28 06:46:29;;;;;;;16.37;9.80;;;;;;;;;;5056337;28;20843;-84
2024/01/28 06:48:55;;;;;;;16.83;10.07;;;;;;;;;;5044467;28;21327;-84
2024/01/28 06:51:21;;;;;;;24.30;11.30;;;;;;;;;;5056626;28;20518;-84
2024/01/28 06:53:49;;;;;;;19.13;10.07;;;;;;;;;;5058810;28;20564;-84
2024/01/28 06:56:15;;;;;;;17.65;9.15;;;;;;;;;;5061041;28;20524;-84
2024/01/28 06:58:44;;;;;;;25.93;9.50;;;;;;;;;;5057705;28;20946;-84
2024/01/28 07:01:11;;;;;;;17.50;9.83;;;;;;;;;;5058778;28;20494;-82
2024/01/28 07:03:37;;;;;;;18.17;10.40;;;;;;;;;;5057376;28;20511;-83
2024/01/28 07:06:04;;;;;;;16.70;10.17;;;;;;;;;;5050359;28;20594;-82
2024/01/28 07:08:30;;;;;;;15.87;9.67;;;;;;;;;;5062677;28;20449;-85
2024/01/28 07:10:58;;;;;;;19.10;10.40;;;;;;;;;;5064120;28;20476;-84
2024/01/28 07:13:24;;;;;;;14.60;10.37;;;;;;;;;;5060883;28;20488;-82
2024/01/28 07:15:53;;;;;;;19.87;12.17;;;;;;;;;;5046836;28;20491;-85
2024/01/28 07:18:19;;;;;;;14.67;9.67;;;;;;;;;;5062044;28;20468;-84
2024/01/28 07:20:45;;;;;;;15.57;10.30;;;;;;;;;;5050740;28;20445;-84
2024/01/28 07:23:12;;;;;;;15.33;10.17;;;;;;;;;;5058544;28;20476;-84
2024/01/28 07:25:38;;;;;;;17.77;10.13;;;;;;;;;;5063132;28;20483;-84
2024/01/28 07:28:05;;;;;;;21.90;10.73;;;;;;;;;;5064593;28;20460;-83
2024/01/28 07:30:31;;;;;;;16.87;11.20;;;;;;;;;;5063847;28;20452;-83
2024/01/28 07:32:59;;;;;;;16.23;10.13;;;;;;;;;;5077719;28;20484;-83
2024/01/28 07:35:26;;;;;;;20.23;11.07;;;;;;;;;;5062385;28;20460;-83
2024/01/28 07:37:52;;;;;;;21.67;11.93;;;;;;;;;;5071363;28;20475;-83
2024/01/28 07:40:18;;;;;;;22.43;10.50;;;;;;;;;;5062868;28;20472;-85
2024/01/28 07:42:45;;;;;;;22.87;11.53;;;;;;;;;;5075151;28;20506;-78
2024/01/28 07:45:11;;;;;;;22.60;10.70;;;;;;;;;;5071719;28;20480;-79
2024/01/28 07:47:39;;;;;;;22.37;11.50;;;;;;;;;;5060653;28;21009;-78
2024/01/28 07:50:07;;;;;;;19.77;11.43;;;;;;;;;;5066147;28;20893;-78
2024/01/28 07:52:34;;;;;;;15.03;9.80;;;;;;;;;;5076649;28;20530;-79
2024/01/28 07:55:00;;;;;;;18.27;9.70;;;;;;;;;;5056698;28;20477;-78
2024/01/28 07:57:27;;;;;;;15.97;10.07;;;;;;;;;;5054280;28;20449;-78
2024/01/28 07:59:53;;;;;;;21.27;11.33;;;;;;;;;;5053309;28;20957;-82
2024/01/28 08:02:20;;;;;;;18.23;10.33;;;;;;;;;;5058995;28;20473;-83
2024/01/28 08:04:47;;;;;;;19.93;10.43;;;;;;;;;;5057975;28;20465;-85
2024/01/28 08:07:15;;;;;;;25.00;11.33;;;;;;;;;;5064948;28;20485;-84
2024/01/28 08:09:42;;;;;;;23.37;12.57;;;;;;;;;;5062048;28;20486;-84
2024/01/28 08:12:08;;;;;;;20.63;12.10;;;;;;;;;;5057369;28;20503;-84
2024/01/28 08:14:34;;;;;;;17.93;14.00;;;;;;;;;;5061602;28;20479;-84
2024/01/28 08:17:01;;;;;;;20.33;14.13;;;;;;;;;;5057437;28;20481;-85
2024/01/28 08:19:27;;;;;;;18.43;14.43;;;;;;;;;;5061480;28;20496;-85
2024/01/28 08:21:54;;;;;;;23.57;16.80;;;;;;;;;;5047471;28;20488;-80
2024/01/28 08:24:21;;;;;;;27.63;16.37;;;;;;;;;;5068439;28;20479;-81
2024/01/28 08:26:48;;;;;;;21.93;15.30;;;;;;;;;;5056557;28;20504;-83
2024/01/28 08:29:15;;;;;;;16.60;11.33;;;;;;;;;;5057126;28;20484;-82
2024/01/28 08:31:41;;;;;;;17.50;13.40;;;;;;;;;;5055508;28;20855;-82
2024/01/28 08:34:08;;;;;;;14.40;12.77;;;;;;;;;;5050878;28;20480;-77
2024/01/28 08:36:34;;;;;;;16.17;12.17;;;;;;;;;;5052182;28;20454;-77
2024/01/28 08:39:04;;;;;;;14.93;13.07;;;;;;;;;;5058429;28;20449;-81
2024/01/28 08:41:32;;;;;;;18.57;16.67;;;;;;;;;;5052599;28;20510;-81
2024/01/28 08:43:58;;;;;;;18.13;16.60;;;;;;;;;;5054901;28;20457;-86
2024/01/28 08:46:26;;;;;;;19.97;18.00;;;;;;;;;;5057346;28;20464;-86
2024/01/28 08:48:53;;;;;;;12.93;11.40;;;;;;;;;;5055049;28;21002;-85
2024/01/28 08:51:19;;;;;;;14.43;12.00;;;;;;;;;;5049952;28;20513;-82
2024/01/28 08:53:45;;;;;;;13.40;11.73;;;;;;;;;;5052668;28;20509;-79
2024/01/28 08:56:12;;;;;;;10.63;9.60;;;;;;;;;;5061310;28;20480;-77
2024/01/28 08:58:39;;;;;;;10.80;9.67;;;;;;;;;;5056957;28;20441;-78
2024/01/28 09:01:07;;;;;;;11.20;10.07;;;;;;;;;;5059751;28;20491;-79
2024/01/28 09:03:34;;;;;;;13.47;10.80;;;;;;;;;;5061386;28;20544;-77
2024/01/28 09:06:02;;;;;;;14.77;12.07;;;;;;;;;;5064086;28;20460;-77
2024/01/28 09:08:30;;;;;;;11.17;10.13;;;;;;;;;;5065217;28;20922;-77
2024/01/28 09:10:56;;;;;;;14.20;12.90;;;;;;;;;;5074697;28;20970;-82
2024/01/28 09:13:24;;;;;;;15.27;13.23;;;;;;;;;;5063710;28;20541;-81
2024/01/28 09:15:51;;;;;;;13.73;12.07;;;;;;;;;;5060241;28;20449;-81
2024/01/28 09:18:18;;;;;;;14.50;13.00;;;;;;;;;;5059207;28;20438;-81
2024/01/28 09:20:44;;;;;;;11.87;10.77;;;;;;;;;;5057852;28;20491;-80
2024/01/28 09:23:10;;;;;;;11.90;10.67;;;;;;;;;;5054055;28;20456;-80
2024/01/28 09:25:37;;;;;;;13.23;11.57;;;;;;;;;;5051440;28;20461;-80
2024/01/28 09:28:03;;;;;;;15.13;11.63;;;;;;;;;;5057413;28;20485;-81
2024/01/28 09:30:30;;;;;;;11.33;10.20;;;;;;;;;;5056039;28;20765;-81
2024/01/28 09:32:58;;;;;;;11.67;10.50;;;;;;;;;;5051225;28;20513;-81
2024/01/28 09:35:25;;;;;;;25.60;23.23;;;;;;;;;;5062009;28;20473;-82
2024/01/28 09:37:54;;;;;;;19.53;17.77;;;;;;;;;;5061476;28;20461;-81
2024/01/28 09:40:20;;;;;;;12.07;11.07;;;;;;;;;;5062123;28;20453;-81
2024/01/28 09:42:52;;;;;;;11.50;10.50;;;;;;;;;;5061699;28;20513;-78
2024/01/28 09:45:19;;;;;;;11.50;10.30;;;;;;;;;;5059268;28;20548;-81
2024/01/28 09:47:46;;;;;;;12.27;11.17;;;;;;;;;;5062978;28;20532;-81
2024/01/28 09:50:14;;;;;;;13.80;12.50;;;;;;;;;;5051340;28;20449;-80
2024/01/28 09:52:40;;;;;;;16.43;14.70;;;;;;;;;;5056705;28;20452;-80
2024/01/28 09:55:07;;;;;;;17.60;14.10;;;;;;;;;;5057975;28;20468;-80
2024/01/28 09:57:34;;;;;;;17.53;12.93;;;;;;;;;;5051707;28;20452;-81
2024/01/28 10:00:01;;;;;;;13.53;12.13;;;;;;;;;;5054708;28;20456;-79
2024/01/28 10:02:27;;;;;;;12.20;11.03;;;;;;;;;;5053089;28;20442;-82
2024/01/28 10:04:55;;;;;;;14.30;13.17;;;;;;;;;;5057901;28;20525;-82
2024/01/28 10:07:23;;;;;;;14.83;10.90;;;;;;;;;;5054941;28;20444;-80
2024/01/28 10:09:50;;;;;;;13.50;11.93;;;;;;;;;;5056537;28;20449;-79
2024/01/28 10:12:18;;;;;;;11.83;9.83;;;;;;;;;;5056577;28;20480;-82
2024/01/28 10:14:50;;;;;;;10.53;9.50;;;;;;;;;;5051675;28;20529;-81
2024/01/28 10:17:16;;;;;;;11.47;10.13;;;;;;;;;;5052660;28;20463;-76
2024/01/28 10:19:43;;;;;;;12.07;10.80;;;;;;;;;;5056918;28;21040;-81
2024/01/28 10:22:09;;;;;;;14.70;13.17;;;;;;;;;;5051765;28;20469;-81
2024/01/28 10:24:41;;;;;;;16.07;14.60;;;;;;;;;;5052877;28;20457;-81
2024/01/28 10:27:07;;;;;;;11.90;10.90;;;;;;;;;;5059297;28;20457;-80
2024/01/28 10:29:34;;;;;;;12.53;10.50;;;;;;;;;;5062934;28;20459;-79
2024/01/28 10:32:01;;;;;;;11.27;10.27;;;;;;;;;;5064460;28;20452;-77
2024/01/28 10:34:27;;;;;;;10.90;9.90;;;;;;;;;;5062903;28;20531;-77
2024/01/28 10:36:55;;;;;;;11.77;10.57;;;;;;;;;;5053709;28;20457;-79
2024/01/28 10:39:22;;;;;;;14.40;12.90;;;;;;;;;;5055522;28;20461;-77
2024/01/28 10:41:55;;;;;;;14.47;13.37;;;;;;;;;;5065535;28;20570;-77
2024/01/28 10:44:22;;;;;;;13.60;12.60;;;;;;;;;;5072440;28;20464;-76
2024/01/28 10:46:53;;;;;;;13.73;12.83;;;;;;;;;;5065688;28;20836;-77
2024/01/28 10:49:25;;;;;;;13.47;12.27;;;;;;;;;;5064426;28;20922;-79
2024/01/28 10:51:54;;;;;;;12.80;11.53;;;;;;;;;;5058042;28;20491;-78
2024/01/28 10:54:21;;;;;;;11.57;10.30;;;;;;;;;;5054907;28;20517;-83
2024/01/28 10:56:48;;;;;;;10.90;9.90;;;;;;;;;;5052559;28;20454;-83
2024/01/28 10:59:16;;;;;;;10.73;9.93;;;;;;;;;;5059069;28;20480;-84
2024/01/28 11:01:43;;;;;;;11.87;9.83;;;;;;;;;;5061027;28;20452;-79
2024/01/28 11:04:09;;;;;;;11.30;10.37;;;;;;;;;;5066881;28;20476;-82
2024/01/28 11:06:36;;;;;;;11.43;10.53;;;;;;;;;;5056636;28;20565;-83
2024/01/28 11:09:03;;;;;;;10.40;9.30;;;;;;;;;;5070696;28;20543;-81
2024/01/28 11:11:30;;;;;;;10.93;10.23;;;;;;;;;;5066935;28;20510;-79
2024/01/28 11:13:56;;;;;;;9.90;9.10;;;;;;;;;;5053334;28;21124;-82
2024/01/28 11:16:28;;;;;;;10.13;9.33;;;;;;;;;;5067909;28;20455;-81
2024/01/28 11:18:58;;;;;;;10.23;9.47;;;;;;;;;;5057826;28;20481;-81
2024/01/28 11:21:25;;;;;;;9.83;9.03;;;;;;;;;;5062296;28;20483;-78
2024/01/28 11:23:53;;;;;;;9.53;8.70;;;;;;;;;;5065099;28;20490;-78
2024/01/28 11:26:20;;;;;;;10.10;9.30;;;;;;;;;;5065807;28;20453;-76
2024/01/28 11:28:47;;;;;;;9.10;8.27;;;;;;;;;;5065127;28;20507;-77
2024/01/28 11:31:21;;;;;;;9.03;8.43;;;;;;;;;;5063326;28;20448;-77
2024/01/28 11:33:49;;;;;;;8.80;8.20;;;;;;;;;;5062765;28;20494;-84
2024/01/28 11:36:17;;;;;;;9.47;8.67;;;;;;;;;;5068339;28;20456;-83
2024/01/28 11:38:46;;;;;;;9.57;8.67;;;;;;;;;;5063517;28;20503;-81
2024/01/28 11:41:14;;;;;;;8.70;8.00;;;;;;;;;;5060524;28;20461;-84
2024/01/28 11:43:40;;;;;;;10.97;9.30;;;;;;;;;;5059208;28;20534;-84
2024/01/28 11:46:08;;;;;;;9.67;8.00;;;;;;;;;;5055977;28;20482;-88
2024/01/28 11:48:34;;;;;;;8.80;7.90;;;;;;;;;;5061984;28;20516;-85
2024/01/28 11:51:03;;;;;;;8.57;7.80;;;;;;;;;;5066280;28;20507;-82
2024/01/28 11:53:30;;;;;;;9.30;8.27;;;;;;;;;;5063624;28;20493;-81
2024/01/28 11:56:05;;;;;;;8.40;7.80;;;;;;;;;;5064299;28;20443;-82
2024/01/28 11:58:31;;;;;;;9.73;8.20;;;;;;;;;;5065167;28;20433;-81
2024/01/28 12:00:58;;;;;;;11.10;8.97;;;;;;;;;;5058004;28;20514;-81
2024/01/28 12:03:24;;;;;;;9.37;8.47;;;;;;;;;;5066603;28;20459;-82
2024/01/28 12:05:51;;;;;;;9.03;8.43;;;;;;;;;;5060722;28;20452;-80
2024/01/28 12:08:26;;;;;;;9.03;8.43;;;;;;;;;;5062197;28;20496;-81
2024/01/28 12:10:56;;;;;;;10.23;9.23;;;;;;;;;;5059062;28;20587;-82
2024/01/28 12:13:22;;;;;;;9.33;8.30;;;;;;;;;;5059856;28;20480;-81
2024/01/28 12:15:49;;;;;;;8.57;7.87;;;;;;;;;;5061262;28;20476;-82
2024/01/28 12:18:15;;;;;;;9.23;8.30;;;;;;;;;;5061681;28;20469;-82
2024/01/28 12:20:41;;;;;;;10.20;9.37;;;;;;;;;;5055767;28;20521;-82
2024/01/28 12:23:08;;;;;;;10.03;9.00;;;;;;;;;;5060531;28;20513;-81
2024/01/28 12:25:36;;;;;;;9.17;8.40;;;;;;;;;;5059650;28;20939;-82
2024/01/28 12:28:04;;;;;;;8.83;8.23;;;;;;;;;;5061511;28;20457;-81
2024/01/28 12:30:30;;;;;;;9.00;8.37;;;;;;;;;;5071908;28;20457;-82
2024/01/28 12:32:59;;;;;;;9.50;8.70;;;;;;;;;;5058546;28;20476;-84
2024/01/28 12:35:26;;;;;;;9.27;8.50;;;;;;;;;;5067606;28;21202;-82
2024/01/28 12:37:52;;;;;;;11.00;8.73;;;;;;;;;;5061495;28;20453;-80
2024/01/28 12:40:19;;;;;;;10.13;8.67;;;;;;;;;;5050918;28;20848;-80
2024/01/28 12:42:46;;;;;;;9.50;8.70;;;;;;;;;;5059815;28;20567;-78
2024/01/28 12:45:13;;;;;;;8.60;7.90;;;;;;;;;;5054507;28;20461;-80
2024/01/28 12:47:40;;;;;;;8.73;7.93;;;;;;;;;;5062925;28;20460;-81
2024/01/28 12:50:07;;;;;;;9.47;8.80;;;;;;;;;;5058482;28;20572;-81
2024/01/28 12:52:34;;;;;;;9.30;8.70;;;;;;;;;;5054530;28;20564;-81
2024/01/28 12:55:01;;;;;;;8.27;7.67;;;;;;;;;;5069410;28;20526;-80
2024/01/28 12:57:27;;;;;;;9.13;8.33;;;;;;;;;;5057314;28;20507;-81
2024/01/28 12:59:55;;;;;;;8.60;7.90;;;;;;;;;;5056011;28;20959;-81
2024/01/28 13:02:21;;;;;;;8.43;7.73;;;;;;;;;;5062095;28;20472;-80
2024/01/28 13:04:48;;;;;;;8.70;8.10;;;;;;;;;;5063515;28;20564;-78
2024/01/28 13:07:15;;;;;;;9.97;9.30;;;;;;;;;;5056908;28;20456;-80
2024/01/28 13:09:41;;;;;;;10.23;8.10;;;;;;;;;;5053552;28;20473;-80
2024/01/28 13:12:08;;;;;;;9.37;8.60;;;;;;;;;;5055530;28;20473;-80
2024/01/28 13:14:35;;;;;;;9.87;8.97;;;;;;;;;;5072439;28;20492;-79
2024/01/28 13:17:02;;;;;;;8.40;7.80;;;;;;;;;;5060913;28;20472;-81
2024/01/28 13:19:29;;;;;;;10.20;9.40;;;;;;;;;;5062419;28;20470;-86
2024/01/28 13:21:55;;;;;;;9.47;8.90;;;;;;;;;;5055235;28;20533;-86
2024/01/28 13:24:22;;;;;;;9.70;9.00;;;;;;;;;;5057380;28;20479;-84
2024/01/28 13:26:50;;;;;;;8.70;8.00;;;;;;;;;;5064192;28;20456;-80
2024/01/28 13:29:18;;;;;;;8.90;8.07;;;;;;;;;;5060731;28;20457;-81
2024/01/28 13:31:44;;;;;;;9.63;8.90;;;;;;;;;;5055248;28;20476;-81
2024/01/28 13:34:12;;;;;;;8.37;7.80;;;;;;;;;;5062397;28;20528;-80
2024/01/28 13:36:38;;;;;;;9.63;8.83;;;;;;;;;;5057895;28;20468;-83
2024/01/28 13:39:05;;;;;;;9.47;8.67;;;;;;;;;;5053151;28;20519;-82
2024/01/28 13:41:32;;;;;;;9.43;8.83;;;;;;;;;;5052952;28;20547;-79
2024/01/28 13:43:58;;;;;;;9.17;8.57;;;;;;;;;;5059677;28;20468;-82
2024/01/28 13:46:24;;;;;;;8.43;7.77;;;;;;;;;;5060893;28;20463;-80
2024/01/28 13:48:51;;;;;;;8.47;7.87;;;;;;;;;;5061769;28;20475;-82
2024/01/28 13:51:19;;;;;;;9.23;8.30;;;;;;;;;;5066277;28;20577;-80
2024/01/28 13:53:45;;;;;;;8.77;8.00;;;;;;;;;;5063360;28;20492;-82
2024/01/28 13:56:11;;;;;;;8.83;8.13;;;;;;;;;;5057539;28;20475;-81
2024/01/28 13:58:38;;;;;;;9.53;8.80;;;;;;;;;;5062336;28;20458;-79
2024/01/28 14:01:04;;;;;;;8.67;8.17;;;;;;;;;;5057356;28;20973;-82
2024/01/28 14:03:32;;;;;;;8.30;7.70;;;;;;;;;;5068188;28;20484;-81
2024/01/28 14:05:59;;;;;;;9.10;8.47;;;;;;;;;;5052598;28;20450;-81
2024/01/28 14:08:26;;;;;;;8.63;8.10;;;;;;;;;;5064784;28;20551;-81
2024/01/28 14:10:53;;;;;;;9.67;8.87;;;;;;;;;;5063842;28;20478;-81
2024/01/28 14:13:19;;;;;;;9.57;8.67;;;;;;;;;;5054971;28;20529;-81
2024/01/28 14:15:46;;;;;;;8.60;7.90;;;;;;;;;;5064520;28;20488;-82
2024/01/28 14:18:12;;;;;;;9.63;8.80;;;;;;;;;;5058764;28;20849;-82
2024/01/28 14:20:39;;;;;;;8.47;7.83;;;;;;;;;;5052508;28;20456;-81